sensor_id;sensor_type;location;lat;lon;timestamp;pressure;altitude;pressure_sealevel;temperature;humidity
49709;BME280;35601;55.902;13.606;2023-05-21T00:01:18;101780.48;;;8.44;56.82
49709;BME280;35601;55.902;13.606;2023-05-21T00:03:43;101780.26;;;8.53;57.00
49709;BME280;35601;55.902;13.606;2023-05-21T00:06:08;101776.59;;;8.41;56.66
49709;BME280;35601;55.902;13.606;2023-05-21T00:08:33;101775.38;;;8.66;56.89
49709;BME280;35601;55.902;13.606;2023-05-21T00:10:59;101777.78;;;8.28;56.68
49709;BME280;35601;55.902;13.606;2023-05-21T00:13:26;101776.95;;;8.14;57.11
49709;BME280;35601;55.902;13.606;2023-05-21T00:15:51;101778.59;;;8.38;57.22
49709;BME280;35601;55.902;13.606;2023-05-21T00:18:16;101778.62;;;8.40;57.12
49709;BME280;35601;55.902;13.606;2023-05-21T00:20:41;101779.68;;;8.36;57.77
49709;BME280;35601;55.902;13.606;2023-05-21T00:23:05;101781.99;;;8.35;57.14
49709;BME280;35601;55.902;13.606;2023-05-21T00:25:30;101783.10;;;8.43;56.99
49709;BME280;35601;55.902;13.606;2023-05-21T00:27:57;101776.55;;;8.11;58.04
49709;BME280;35601;55.902;13.606;2023-05-21T00:30:21;101774.36;;;8.17;57.96
49709;BME280;35601;55.902;13.606;2023-05-21T00:32:46;101773.53;;;8.52;57.84
49709;BME280;35601;55.902;13.606;2023-05-21T00:35:11;101772.89;;;8.08;58.00
49709;BME280;35601;55.902;13.606;2023-05-21T00:37:38;101770.51;;;8.59;57.67
49709;BME280;35601;55.902;13.606;2023-05-21T00:40:02;101768.19;;;8.39;57.75
49709;BME280;35601;55.902;13.606;2023-05-21T00:42:27;101768.18;;;8.44;57.72
49709;BME280;35601;55.902;13.606;2023-05-21T00:44:52;101767.77;;;8.37;57.69
49709;BME280;35601;55.902;13.606;2023-05-21T00:47:18;101762.45;;;8.32;58.02
49709;BME280;35601;55.902;13.606;2023-05-21T00:49:45;101763.40;;;8.58;58.13
49709;BME280;35601;55.902;13.606;2023-05-21T00:52:08;101759.29;;;8.42;58.05
49709;BME280;35601;55.902;13.606;2023-05-21T00:54:33;101761.19;;;8.62;58.17
49709;BME280;35601;55.902;13.606;2023-05-21T00:56:59;101757.85;;;8.49;58.75
49709;BME280;35601;55.902;13.606;2023-05-21T00:59:24;101755.50;;;8.02;58.86
49709;BME280;35601;55.902;13.606;2023-05-21T01:01:51;101753.69;;;8.51;58.77
49709;BME280;35601;55.902;13.606;2023-05-21T01:04:15;101752.21;;;8.04;58.98
49709;BME280;35601;55.902;13.606;2023-05-21T01:06:41;101746.29;;;8.52;59.16
49709;BME280;35601;55.902;13.606;2023-05-21T01:09:05;101743.52;;;8.03;59.03
49709;BME280;35601;55.902;13.606;2023-05-21T01:11:37;101738.50;;;8.14;59.36
49709;BME280;35601;55.902;13.606;2023-05-21T01:13:57;101735.40;;;8.33;59.56
49709;BME280;35601;55.902;13.606;2023-05-21T01:16:21;101736.17;;;8.03;59.56
49709;BME280;35601;55.902;13.606;2023-05-21T01:18:46;101735.47;;;8.32;59.58
49709;BME280;35601;55.902;13.606;2023-05-21T01:21:13;101738.35;;;8.27;60.01
49709;BME280;35601;55.902;13.606;2023-05-21T01:23:38;101739.48;;;7.99;60.03
49709;BME280;35601;55.902;13.606;2023-05-21T01:26:02;101734.13;;;7.72;60.25
49709;BME280;35601;55.902;13.606;2023-05-21T01:28:29;101733.99;;;8.18;60.24
49709;BME280;35601;55.902;13.606;2023-05-21T01:30:53;101736.16;;;7.94;60.24
49709;BME280;35601;55.902;13.606;2023-05-21T01:33:21;101741.13;;;8.26;60.31
49709;BME280;35601;55.902;13.606;2023-05-21T01:35:49;101740.61;;;8.19;60.29
49709;BME280;35601;55.902;13.606;2023-05-21T01:38:15;101741.70;;;8.34;59.90
49709;BME280;35601;55.902;13.606;2023-05-21T01:40:40;101741.30;;;7.83;60.00
49709;BME280;35601;55.902;13.606;2023-05-21T01:43:00;101743.09;;;8.31;60.15
49709;BME280;35601;55.902;13.606;2023-05-21T01:45:26;101738.89;;;8.37;60.05
49709;BME280;35601;55.902;13.606;2023-05-21T01:47:53;101735.13;;;8.32;60.27
49709;BME280;35601;55.902;13.606;2023-05-21T01:50:17;101729.96;;;8.28;60.34
49709;BME280;35601;55.902;13.606;2023-05-21T01:52:51;101726.08;;;8.30;60.43
49709;BME280;35601;55.902;13.606;2023-05-21T01:55:08;101721.34;;;8.07;60.42
49709;BME280;35601;55.902;13.606;2023-05-21T01:57:31;101717.15;;;7.88;60.89
49709;BME280;35601;55.902;13.606;2023-05-21T01:59:56;101713.52;;;7.96;60.73
49709;BME280;35601;55.902;13.606;2023-05-21T02:02:21;101710.34;;;8.22;60.71
49709;BME280;35601;55.902;13.606;2023-05-21T02:04:47;101708.80;;;7.81;60.54
49709;BME280;35601;55.902;13.606;2023-05-21T02:07:12;101703.15;;;8.14;60.71
49709;BME280;35601;55.902;13.606;2023-05-21T02:09:37;101700.70;;;8.09;60.95
49709;BME280;35601;55.902;13.606;2023-05-21T02:12:03;101697.14;;;8.16;60.78
49709;BME280;35601;55.902;13.606;2023-05-21T02:14:28;101696.43;;;8.12;60.84
49709;BME280;35601;55.902;13.606;2023-05-21T02:16:55;101695.24;;;7.92;60.73
49709;BME280;35601;55.902;13.606;2023-05-21T02:19:20;101693.47;;;8.09;60.65
49709;BME280;35601;55.902;13.606;2023-05-21T02:21:45;101692.15;;;7.91;60.84
49709;BME280;35601;55.902;13.606;2023-05-21T02:24:10;101691.15;;;8.17;60.68
49709;BME280;35601;55.902;13.606;2023-05-21T02:26:35;101691.21;;;7.97;60.74
49709;BME280;35601;55.902;13.606;2023-05-21T02:29:00;101689.47;;;7.78;60.94
49709;BME280;35601;55.902;13.606;2023-05-21T02:31:25;101688.48;;;7.51;61.13
49709;BME280;35601;55.902;13.606;2023-05-21T02:33:51;101692.24;;;8.07;61.03
49709;BME280;35601;55.902;13.606;2023-05-21T02:36:16;101689.75;;;7.72;61.16
49709;BME280;35601;55.902;13.606;2023-05-21T02:38:41;101692.04;;;7.86;61.35
49709;BME280;35601;55.902;13.606;2023-05-21T02:41:07;101689.38;;;8.10;60.93
49709;BME280;35601;55.902;13.606;2023-05-21T02:43:31;101688.71;;;8.12;60.90
49709;BME280;35601;55.902;13.606;2023-05-21T02:45:57;101684.75;;;8.20;60.98
49709;BME280;35601;55.902;13.606;2023-05-21T02:48:23;101684.40;;;8.13;60.82
49709;BME280;35601;55.902;13.606;2023-05-21T02:50:47;101681.90;;;8.18;60.55
49709;BME280;35601;55.902;13.606;2023-05-21T02:53:13;101679.43;;;8.20;60.60
49709;BME280;35601;55.902;13.606;2023-05-21T02:55:38;101679.24;;;8.27;60.49
49709;BME280;35601;55.902;13.606;2023-05-21T02:58:03;101680.60;;;8.47;60.53
49709;BME280;35601;55.902;13.606;2023-05-21T03:00:28;101679.12;;;8.28;60.20
49709;BME280;35601;55.902;13.606;2023-05-21T03:02:54;101681.01;;;8.34;60.24
49709;BME280;35601;55.902;13.606;2023-05-21T03:05:19;101676.26;;;8.27;59.99
49709;BME280;35601;55.902;13.606;2023-05-21T03:07:46;101673.55;;;8.30;60.42
49709;BME280;35601;55.902;13.606;2023-05-21T03:10:11;101675.56;;;8.11;60.41
49709;BME280;35601;55.902;13.606;2023-05-21T03:12:36;101670.11;;;8.27;60.36
49709;BME280;35601;55.902;13.606;2023-05-21T03:15:01;101668.81;;;8.07;60.08
49709;BME280;35601;55.902;13.606;2023-05-21T03:17:26;101666.96;;;8.16;59.86
49709;BME280;35601;55.902;13.606;2023-05-21T03:19:51;101668.63;;;8.33;60.02
49709;BME280;35601;55.902;13.606;2023-05-21T03:22:16;101664.57;;;8.07;60.03
49709;BME280;35601;55.902;13.606;2023-05-21T03:24:41;101665.22;;;8.26;59.89
49709;BME280;35601;55.902;13.606;2023-05-21T03:27:08;101664.87;;;8.42;59.04
49709;BME280;35601;55.902;13.606;2023-05-21T03:29:32;101666.86;;;8.40;59.61
49709;BME280;35601;55.902;13.606;2023-05-21T03:32:00;101668.92;;;8.63;59.40
49709;BME280;35601;55.902;13.606;2023-05-21T03:34:23;101668.29;;;8.09;59.19
49709;BME280;35601;55.902;13.606;2023-05-21T03:36:48;101666.23;;;8.73;59.43
49709;BME280;35601;55.902;13.606;2023-05-21T03:39:15;101662.68;;;8.50;58.97
49709;BME280;35601;55.902;13.606;2023-05-21T03:41:38;101661.22;;;8.78;59.02
49709;BME280;35601;55.902;13.606;2023-05-21T03:44:04;101661.96;;;8.80;59.36
49709;BME280;35601;55.902;13.606;2023-05-21T03:46:29;101658.91;;;8.84;58.75
49709;BME280;35601;55.902;13.606;2023-05-21T03:48:54;101658.11;;;8.59;59.15
49709;BME280;35601;55.902;13.606;2023-05-21T03:51:19;101655.64;;;8.43;59.15
49709;BME280;35601;55.902;13.606;2023-05-21T03:53:45;101652.04;;;8.64;59.47
49709;BME280;35601;55.902;13.606;2023-05-21T03:56:12;101650.04;;;8.32;59.25
49709;BME280;35601;55.902;13.606;2023-05-21T03:58:35;101648.37;;;8.59;59.31
49709;BME280;35601;55.902;13.606;2023-05-21T04:01:01;101642.43;;;8.60;59.16
49709;BME280;35601;55.902;13.606;2023-05-21T04:03:28;101639.00;;;8.44;59.43
49709;BME280;35601;55.902;13.606;2023-05-21T04:05:53;101637.32;;;8.72;58.87
49709;BME280;35601;55.902;13.606;2023-05-21T04:08:16;101632.95;;;8.73;58.78
49709;BME280;35601;55.902;13.606;2023-05-21T04:10:43;101632.67;;;8.82;58.66
49709;BME280;35601;55.902;13.606;2023-05-21T04:13:07;101634.57;;;8.62;58.23
49709;BME280;35601;55.902;13.606;2023-05-21T04:15:32;101635.61;;;8.62;57.95
49709;BME280;35601;55.902;13.606;2023-05-21T04:17:58;101637.03;;;8.93;58.06
49709;BME280;35601;55.902;13.606;2023-05-21T04:20:23;101632.50;;;8.93;59.02
49709;BME280;35601;55.902;13.606;2023-05-21T04:22:50;101630.62;;;9.21;57.39
49709;BME280;35601;55.902;13.606;2023-05-21T04:25:15;101631.69;;;9.44;57.36
49709;BME280;35601;55.902;13.606;2023-05-21T04:27:39;101632.85;;;9.64;55.24
49709;BME280;35601;55.902;13.606;2023-05-21T04:30:06;101634.08;;;9.59;55.57
49709;BME280;35601;55.902;13.606;2023-05-21T04:32:29;101634.41;;;9.62;55.12
49709;BME280;35601;55.902;13.606;2023-05-21T04:34:57;101636.20;;;8.63;55.30
49709;BME280;35601;55.902;13.606;2023-05-21T04:37:22;101637.97;;;9.88;54.83
49709;BME280;35601;55.902;13.606;2023-05-21T04:39:46;101638.30;;;9.87;54.30
49709;BME280;35601;55.902;13.606;2023-05-21T04:42:13;101635.33;;;10.03;54.42
49709;BME280;35601;55.902;13.606;2023-05-21T04:44:37;101630.51;;;9.87;53.90
49709;BME280;35601;55.902;13.606;2023-05-21T04:47:04;101628.50;;;9.69;54.37
49709;BME280;35601;55.902;13.606;2023-05-21T04:49:29;101631.43;;;9.84;54.22
49709;BME280;35601;55.902;13.606;2023-05-21T04:51:54;101624.26;;;9.81;53.79
49709;BME280;35601;55.902;13.606;2023-05-21T04:54:18;101622.95;;;10.08;54.23
49709;BME280;35601;55.902;13.606;2023-05-21T04:56:44;101621.75;;;10.10;53.76
49709;BME280;35601;55.902;13.606;2023-05-21T04:59:09;101619.04;;;8.71;53.41
49709;BME280;35601;55.902;13.606;2023-05-21T05:01:36;101610.11;;;10.28;52.08
49709;BME280;35601;55.902;13.606;2023-05-21T05:04:00;101605.74;;;10.28;52.64
49709;BME280;35601;55.902;13.606;2023-05-21T05:06:25;101603.37;;;10.72;51.67
49709;BME280;35601;55.902;13.606;2023-05-21T05:08:51;101599.78;;;10.83;50.98
49709;BME280;35601;55.902;13.606;2023-05-21T05:11:17;101596.21;;;11.02;50.73
49709;BME280;35601;55.902;13.606;2023-05-21T05:13:41;101594.26;;;11.37;50.56
49709;BME280;35601;55.902;13.606;2023-05-21T05:16:06;101593.05;;;11.13;50.31
49709;BME280;35601;55.902;13.606;2023-05-21T05:18:31;101587.80;;;11.02;50.18
49709;BME280;35601;55.902;13.606;2023-05-21T05:20:57;101590.81;;;11.52;49.46
49709;BME280;35601;55.902;13.606;2023-05-21T05:23:22;101587.47;;;11.45;50.66
49709;BME280;35601;55.902;13.606;2023-05-21T05:25:47;101590.67;;;11.48;50.91
49709;BME280;35601;55.902;13.606;2023-05-21T05:28:12;101587.87;;;11.70;49.59
49709;BME280;35601;55.902;13.606;2023-05-21T05:30:37;101590.04;;;11.83;49.54
49709;BME280;35601;55.902;13.606;2023-05-21T05:33:03;101594.36;;;11.93;48.38
49709;BME280;35601;55.902;13.606;2023-05-21T05:35:28;101597.60;;;12.53;48.51
49709;BME280;35601;55.902;13.606;2023-05-21T05:37:53;101600.06;;;12.53;47.09
49709;BME280;35601;55.902;13.606;2023-05-21T05:40:18;101593.40;;;12.38;47.06
49709;BME280;35601;55.902;13.606;2023-05-21T05:42:44;101593.24;;;12.08;47.29
49709;BME280;35601;55.902;13.606;2023-05-21T05:45:10;101595.89;;;12.90;47.28
49709;BME280;35601;55.902;13.606;2023-05-21T05:47:34;101597.18;;;12.89;46.49
49709;BME280;35601;55.902;13.606;2023-05-21T05:50:00;101596.89;;;12.68;46.01
49709;BME280;35601;55.902;13.606;2023-05-21T05:52:24;101592.92;;;12.91;45.81
49709;BME280;35601;55.902;13.606;2023-05-21T05:54:50;101589.98;;;12.88;46.45
49709;BME280;35601;55.902;13.606;2023-05-21T05:57:15;101582.82;;;13.30;45.26
49709;BME280;35601;55.902;13.606;2023-05-21T05:59:40;101578.51;;;13.39;44.94
49709;BME280;35601;55.902;13.606;2023-05-21T06:02:05;101585.95;;;13.95;43.67
49709;BME280;35601;55.902;13.606;2023-05-21T06:04:30;101583.78;;;13.87;43.40
49709;BME280;35601;55.902;13.606;2023-05-21T06:06:56;101581.03;;;13.94;42.82
49709;BME280;35601;55.902;13.606;2023-05-21T06:09:23;101579.94;;;14.23;42.37
49709;BME280;35601;55.902;13.606;2023-05-21T06:11:46;101581.68;;;14.29;41.96
49709;BME280;35601;55.902;13.606;2023-05-21T06:14:11;101575.72;;;14.02;42.97
49709;BME280;35601;55.902;13.606;2023-05-21T06:16:36;101577.12;;;14.46;42.88
49709;BME280;35601;55.902;13.606;2023-05-21T06:19:02;101573.28;;;14.48;41.82
49709;BME280;35601;55.902;13.606;2023-05-21T06:21:27;101570.31;;;14.37;41.52
49709;BME280;35601;55.902;13.606;2023-05-21T06:23:52;101571.96;;;13.92;41.65
49709;BME280;35601;55.902;13.606;2023-05-21T06:26:17;101573.42;;;14.06;41.59
49709;BME280;35601;55.902;13.606;2023-05-21T06:28:42;101573.96;;;14.31;42.14
49709;BME280;35601;55.902;13.606;2023-05-21T06:31:07;101577.05;;;14.22;42.18
49709;BME280;35601;55.902;13.606;2023-05-21T06:33:33;101571.41;;;14.55;42.16
49709;BME280;35601;55.902;13.606;2023-05-21T06:35:58;101572.41;;;14.75;41.96
49709;BME280;35601;55.902;13.606;2023-05-21T06:38:23;101572.00;;;14.89;42.29
49709;BME280;35601;55.902;13.606;2023-05-21T06:40:49;101569.26;;;15.11;41.43
49709;BME280;35601;55.902;13.606;2023-05-21T06:43:14;101577.23;;;15.60;42.88
49709;BME280;35601;55.902;13.606;2023-05-21T06:45:39;101574.55;;;15.28;40.35
49709;BME280;35601;55.902;13.606;2023-05-21T06:48:04;101577.68;;;15.70;39.65
49709;BME280;35601;55.902;13.606;2023-05-21T06:50:29;101581.04;;;15.70;39.81
49709;BME280;35601;55.902;13.606;2023-05-21T06:52:54;101581.74;;;15.85;39.49
49709;BME280;35601;55.902;13.606;2023-05-21T06:55:19;101584.58;;;16.08;39.15
49709;BME280;35601;55.902;13.606;2023-05-21T06:57:44;101588.98;;;15.78;39.35
49709;BME280;35601;55.902;13.606;2023-05-21T07:00:12;101589.38;;;16.47;38.12
49709;BME280;35601;55.902;13.606;2023-05-21T07:02:35;101592.60;;;16.55;38.33
49709;BME280;35601;55.902;13.606;2023-05-21T07:05:00;101591.77;;;15.72;39.18
49709;BME280;35601;55.902;13.606;2023-05-21T07:07:25;101591.02;;;16.16;38.72
49709;BME280;35601;55.902;13.606;2023-05-21T07:09:50;101595.91;;;16.15;39.20
49709;BME280;35601;55.902;13.606;2023-05-21T07:12:16;101591.94;;;16.54;39.36
49709;BME280;35601;55.902;13.606;2023-05-21T07:14:41;101586.80;;;16.29;38.68
49709;BME280;35601;55.902;13.606;2023-05-21T07:17:06;101584.60;;;16.23;40.28
49709;BME280;35601;55.902;13.606;2023-05-21T07:19:31;101581.02;;;16.73;38.97
49709;BME280;35601;55.902;13.606;2023-05-21T07:21:56;101576.75;;;17.32;38.49
49709;BME280;35601;55.902;13.606;2023-05-21T07:24:21;101569.18;;;17.66;37.42
49709;BME280;35601;55.902;13.606;2023-05-21T07:26:47;101578.52;;;17.66;37.47
49709;BME280;35601;55.902;13.606;2023-05-21T07:29:12;101576.80;;;17.52;36.83
49709;BME280;35601;55.902;13.606;2023-05-21T07:31:37;101576.66;;;17.65;38.27
49709;BME280;35601;55.902;13.606;2023-05-21T07:34:02;101569.96;;;17.78;37.22
49709;BME280;35601;55.902;13.606;2023-05-21T07:36:27;101576.48;;;17.86;36.95
49709;BME280;35601;55.902;13.606;2023-05-21T07:38:53;101582.12;;;18.27;37.36
49709;BME280;35601;55.902;13.606;2023-05-21T07:41:17;101585.03;;;18.43;36.20
49709;BME280;35601;55.902;13.606;2023-05-21T07:43:43;101587.35;;;18.54;37.14
49709;BME280;35601;55.902;13.606;2023-05-21T07:46:08;101587.39;;;18.21;36.65
49709;BME280;35601;55.902;13.606;2023-05-21T07:48:33;101585.05;;;18.71;35.62
49709;BME280;35601;55.902;13.606;2023-05-21T07:50:58;101588.62;;;18.72;35.20
49709;BME280;35601;55.902;13.606;2023-05-21T07:53:25;101589.39;;;19.00;35.28
49709;BME280;35601;55.902;13.606;2023-05-21T07:55:48;101587.43;;;19.14;35.01
49709;BME280;35601;55.902;13.606;2023-05-21T07:58:14;101589.79;;;19.75;35.40
49709;BME280;35601;55.902;13.606;2023-05-21T08:00:43;101593.46;;;19.87;35.25
49709;BME280;35601;55.902;13.606;2023-05-21T08:03:04;101595.87;;;20.09;35.18
49709;BME280;35601;55.902;13.606;2023-05-21T08:05:29;101597.13;;;20.16;33.96
49709;BME280;35601;55.902;13.606;2023-05-21T08:07:54;101595.50;;;20.07;35.66
49709;BME280;35601;55.902;13.606;2023-05-21T08:10:19;101598.39;;;20.75;34.59
49709;BME280;35601;55.902;13.606;2023-05-21T08:12:46;101592.90;;;20.78;34.72
49709;BME280;35601;55.902;13.606;2023-05-21T08:15:11;101590.30;;;21.25;32.51
49709;BME280;35601;55.902;13.606;2023-05-21T08:17:35;101587.94;;;21.14;32.69
49709;BME280;35601;55.902;13.606;2023-05-21T08:20:00;101588.02;;;21.50;32.99
49709;BME280;35601;55.902;13.606;2023-05-21T08:22:25;101587.37;;;21.60;33.54
49709;BME280;35601;55.902;13.606;2023-05-21T08:24:50;101586.62;;;22.25;32.61
49709;BME280;35601;55.902;13.606;2023-05-21T08:27:16;101590.20;;;22.03;31.21
49709;BME280;35601;55.902;13.606;2023-05-21T08:29:41;101586.02;;;21.65;30.85
49709;BME280;35601;55.902;13.606;2023-05-21T08:32:07;101584.31;;;21.57;31.50
49709;BME280;35601;55.902;13.606;2023-05-21T08:34:31;101588.45;;;21.69;31.52
49709;BME280;35601;55.902;13.606;2023-05-21T08:36:56;101588.27;;;21.61;32.05
49709;BME280;35601;55.902;13.606;2023-05-21T08:39:21;101591.81;;;21.55;32.21
49709;BME280;35601;55.902;13.606;2023-05-21T08:41:48;101595.51;;;21.23;32.47
49709;BME280;35601;55.902;13.606;2023-05-21T08:44:11;101592.45;;;20.85;32.23
49709;BME280;35601;55.902;13.606;2023-05-21T08:46:39;101594.21;;;20.95;32.98
49709;BME280;35601;55.902;13.606;2023-05-21T08:49:02;101595.39;;;20.97;35.14
49709;BME280;35601;55.902;13.606;2023-05-21T08:51:27;101599.74;;;20.32;34.05
49709;BME280;35601;55.902;13.606;2023-05-21T08:53:52;101595.70;;;21.05;34.06
49709;BME280;35601;55.902;13.606;2023-05-21T08:56:17;101592.09;;;20.94;34.03
49709;BME280;35601;55.902;13.606;2023-05-21T08:58:44;101590.88;;;20.58;35.60
49709;BME280;35601;55.902;13.606;2023-05-21T09:01:09;101582.08;;;21.35;34.51
49709;BME280;35601;55.902;13.606;2023-05-21T09:03:33;101589.38;;;20.81;34.72
49709;BME280;35601;55.902;13.606;2023-05-21T09:05:58;101585.81;;;20.81;34.49
49709;BME280;35601;55.902;13.606;2023-05-21T09:08:28;101583.86;;;20.43;34.92
49709;BME280;35601;55.902;13.606;2023-05-21T09:10:50;101581.39;;;20.78;35.73
49709;BME280;35601;55.902;13.606;2023-05-21T09:13:14;101580.58;;;20.67;34.51
49709;BME280;35601;55.902;13.606;2023-05-21T09:15:39;101580.04;;;21.13;34.93
49709;BME280;35601;55.902;13.606;2023-05-21T09:18:04;101574.11;;;21.63;33.42
49709;BME280;35601;55.902;13.606;2023-05-21T09:20:29;101573.12;;;21.72;32.78
49709;BME280;35601;55.902;13.606;2023-05-21T09:22:54;101573.95;;;21.70;34.09
49709;BME280;35601;55.902;13.606;2023-05-21T09:25:21;101576.04;;;22.01;34.13
49709;BME280;35601;55.902;13.606;2023-05-21T09:27:45;101571.72;;;22.17;33.15
49709;BME280;35601;55.902;13.606;2023-05-21T09:30:11;101569.77;;;21.94;32.78
49709;BME280;35601;55.902;13.606;2023-05-21T09:32:35;101573.28;;;21.77;33.06
49709;BME280;35601;55.902;13.606;2023-05-21T09:35:06;101573.06;;;22.43;32.57
49709;BME280;35601;55.902;13.606;2023-05-21T09:37:25;101570.51;;;22.13;33.52
49709;BME280;35601;55.902;13.606;2023-05-21T09:39:52;101575.66;;;22.19;33.76
49709;BME280;35601;55.902;13.606;2023-05-21T09:42:19;101567.21;;;22.56;33.07
49709;BME280;35601;55.902;13.606;2023-05-21T09:44:42;101563.70;;;22.70;32.30
49709;BME280;35601;55.902;13.606;2023-05-21T09:47:07;101567.76;;;22.92;32.75
49709;BME280;35601;55.902;13.606;2023-05-21T09:49:31;101564.31;;;22.94;32.78
49709;BME280;35601;55.902;13.606;2023-05-21T09:51:57;101562.49;;;23.09;32.29
49709;BME280;35601;55.902;13.606;2023-05-21T09:54:24;101562.44;;;23.33;32.28
49709;BME280;35601;55.902;13.606;2023-05-21T09:56:50;101553.91;;;23.72;31.58
49709;BME280;35601;55.902;13.606;2023-05-21T09:59:12;101555.24;;;23.05;31.72
49709;BME280;35601;55.902;13.606;2023-05-21T10:01:37;101551.51;;;22.95;32.05
49709;BME280;35601;55.902;13.606;2023-05-21T10:04:06;101558.43;;;23.01;32.48
49709;BME280;35601;55.902;13.606;2023-05-21T10:06:30;101559.01;;;23.15;32.80
49709;BME280;35601;55.902;13.606;2023-05-21T10:08:54;101552.43;;;23.32;32.85
49709;BME280;35601;55.902;13.606;2023-05-21T10:11:18;101556.79;;;23.70;32.46
49709;BME280;35601;55.902;13.606;2023-05-21T10:13:44;101552.86;;;23.81;32.46
49709;BME280;35601;55.902;13.606;2023-05-21T10:16:10;101560.38;;;23.99;31.97
49709;BME280;35601;55.902;13.606;2023-05-21T10:18:34;101551.80;;;23.06;32.07
49709;BME280;35601;55.902;13.606;2023-05-21T10:20:59;101563.82;;;23.09;32.44
49709;BME280;35601;55.902;13.606;2023-05-21T10:23:26;101559.57;;;22.80;33.05
49709;BME280;35601;55.902;13.606;2023-05-21T10:25:50;101559.15;;;22.86;33.46
49709;BME280;35601;55.902;13.606;2023-05-21T10:28:16;101558.91;;;23.00;32.99
49709;BME280;35601;55.902;13.606;2023-05-21T10:30:41;101558.78;;;23.29;33.25
49709;BME280;35601;55.902;13.606;2023-05-21T10:33:06;101564.22;;;22.51;33.39
49709;BME280;35601;55.902;13.606;2023-05-21T10:35:32;101554.23;;;22.92;33.33
49709;BME280;35601;55.902;13.606;2023-05-21T10:37:56;101556.97;;;22.79;34.48
49709;BME280;35601;55.902;13.606;2023-05-21T10:40:22;101557.17;;;22.39;33.43
49709;BME280;35601;55.902;13.606;2023-05-21T10:45:15;101552.15;;;23.49;33.88
49709;BME280;35601;55.902;13.606;2023-05-21T10:47:51;101547.48;;;23.48;33.73
49709;BME280;35601;55.902;13.606;2023-05-21T10:52:42;101544.74;;;23.83;31.95
49709;BME280;35601;55.902;13.606;2023-05-21T10:55:01;101544.66;;;24.15;32.18
49709;BME280;35601;55.902;13.606;2023-05-21T10:59:44;101542.59;;;23.82;32.65
49709;BME280;35601;55.902;13.606;2023-05-21T11:02:12;101541.84;;;24.05;32.34
49709;BME280;35601;55.902;13.606;2023-05-21T11:04:34;101542.60;;;24.19;31.67
49709;BME280;35601;55.902;13.606;2023-05-21T11:06:59;101539.55;;;24.01;31.75
49709;BME280;35601;55.902;13.606;2023-05-21T11:09:25;101543.99;;;23.90;32.07
49709;BME280;35601;55.902;13.606;2023-05-21T11:11:50;101535.02;;;23.36;33.07
49709;BME280;35601;55.902;13.606;2023-05-21T11:14:25;101540.59;;;23.99;33.55
49709;BME280;35601;55.902;13.606;2023-05-21T11:16:44;101539.76;;;23.88;32.62
49709;BME280;35601;55.902;13.606;2023-05-21T11:19:04;101541.86;;;24.03;33.03
49709;BME280;35601;55.902;13.606;2023-05-21T11:21:30;101540.64;;;24.23;32.32
49709;BME280;35601;55.902;13.606;2023-05-21T11:23:55;101543.55;;;23.60;32.81
49709;BME280;35601;55.902;13.606;2023-05-21T11:26:21;101541.96;;;23.30;32.99
49709;BME280;35601;55.902;13.606;2023-05-21T11:28:45;101537.98;;;23.42;33.22
49709;BME280;35601;55.902;13.606;2023-05-21T11:31:21;101546.67;;;22.71;33.92
49709;BME280;35601;55.902;13.606;2023-05-21T11:33:35;101545.63;;;22.63;34.42
49709;BME280;35601;55.902;13.606;2023-05-21T11:36:00;101545.60;;;22.93;34.94
49709;BME280;35601;55.902;13.606;2023-05-21T11:38:27;101540.16;;;22.15;35.84
49709;BME280;35601;55.902;13.606;2023-05-21T11:40:52;101531.84;;;21.53;36.75
49709;BME280;35601;55.902;13.606;2023-05-21T11:43:17;101532.97;;;21.57;36.63
49709;BME280;35601;55.902;13.606;2023-05-21T11:45:42;101533.97;;;21.70;37.30
49709;BME280;35601;55.902;13.606;2023-05-21T11:48:12;101532.46;;;22.04;38.09
49709;BME280;35601;55.902;13.606;2023-05-21T11:50:34;101530.56;;;22.30;37.12
49709;BME280;35601;55.902;13.606;2023-05-21T11:52:58;101527.44;;;22.26;36.64
49709;BME280;35601;55.902;13.606;2023-05-21T11:55:23;101527.79;;;22.22;36.46
49709;BME280;35601;55.902;13.606;2023-05-21T11:57:52;101525.48;;;22.50;36.03
49709;BME280;35601;55.902;13.606;2023-05-21T12:00:15;101526.22;;;22.12;36.38
49709;BME280;35601;55.902;13.606;2023-05-21T12:02:47;101527.25;;;22.04;36.47
49709;BME280;35601;55.902;13.606;2023-05-21T12:05:07;101523.49;;;22.22;37.16
49709;BME280;35601;55.902;13.606;2023-05-21T12:07:31;101528.92;;;22.24;37.40
49709;BME280;35601;55.902;13.606;2023-05-21T12:09:56;101524.97;;;22.33;36.41
49709;BME280;35601;55.902;13.606;2023-05-21T12:12:24;101528.51;;;22.59;36.04
49709;BME280;35601;55.902;13.606;2023-05-21T12:14:49;101522.90;;;23.10;35.57
49709;BME280;35601;55.902;13.606;2023-05-21T12:17:15;101527.66;;;22.89;35.86
49709;BME280;35601;55.902;13.606;2023-05-21T12:19:38;101531.27;;;22.28;36.20
49709;BME280;35601;55.902;13.606;2023-05-21T12:22:04;101522.04;;;23.01;35.88
49709;BME280;35601;55.902;13.606;2023-05-21T12:24:29;101525.32;;;23.06;35.97
49709;BME280;35601;55.902;13.606;2023-05-21T12:26:56;101522.31;;;23.04;35.08
49709;BME280;35601;55.902;13.606;2023-05-21T12:29:21;101521.47;;;22.98;36.24
49709;BME280;35601;55.902;13.606;2023-05-21T12:31:47;101522.37;;;23.25;35.35
49709;BME280;35601;55.902;13.606;2023-05-21T12:34:10;101525.02;;;23.37;35.02
49709;BME280;35601;55.902;13.606;2023-05-21T12:36:36;101520.68;;;22.81;34.93
49709;BME280;35601;55.902;13.606;2023-05-21T12:39:01;101522.98;;;22.74;35.76